Aérodrome :
LOGIN :

S'inscrire | Disclaimer

   EN    FR    IT 

 










Légende :    VFR   VFR Marginal   IFR   IFR Intensif   IFR Très Intensif
Visi : 
Plafond : 
>= 8 km
>= 3000ft
5 à 8 km
1000 à 3000 ft
1500m à 5 km
500 à 1000 ft
800 à 1500m
200 à 500 ft
< 800m
< 200 ft
Symboles :   Orages  Brouillard  Fortes neiges  Fortes précipitations  Vent > 20 kt
SIGMETs :   Divers  Orages  Givrage  Turbulence  Onde Orograph.  Cendres Volcan.






- Altitude de l'aérodrome : 2945 ft
- Code IATA : RGS


LEBG - Burgos

DERNIER METAR :
  • 011200Z AUTO 03007KT 9999 -RA BKN013 OVC018 08/05 Q1012

METARs EXPIRÉS :
  • 011130Z AUTO 03008KT 9999 SCT021 SCT027 BKN039 08/07 Q1012
  • 011100Z AUTO 04009KT 9999 FEW006 OVC022 07/05 Q1012
  • 011030Z AUTO 04009KT 9999 SCT008 BKN020 BKN032 06/06 Q1012
  • 011000Z AUTO 04008KT 9999 BKN006 BKN030 BKN050 07/06 Q1012
  • 010930Z AUTO 04007KT 010V070 9999 SCT005 OVC030 06/06 Q1012

TAF TAF LEBG
Valide du 01 à 12h jusqu'au 01 à 21h UTC


011100Z 0112/0121 06008KT 9999 BKN015 OVC025
TEMPO 0112/0121 4000 RADZ BKN008



MET'MAP, la Météo Aéronautique d'un coup d'oeil ! - Copyright ORBIFLY Décembre 2007 - Disclaimer

ORBIFLY MET'MAP TEAM :

Programmation & Développement : Alexandra Zaïnal
Sur une idée originale de : Baudouin d'Aumeries
Assistance à la programmation : Marc-Olivier Méhu
Soutien technique & logistique : Manuel Goepfert

Contact : metmap@orbifly.com




SOURCES & CREDITS :

   NOAA